createdAt,value
2022-10-07T00:01:01.879Z,71.20
2022-10-07T00:03:29.992Z,71.50
2022-10-07T00:06:15.090Z,71.70
2022-10-07T00:08:46.246Z,72.40
2022-10-07T00:11:21.836Z,72.10
2022-10-07T00:13:54.046Z,72.30
2022-10-07T00:16:24.710Z,72.20
2022-10-07T00:18:57.741Z,72.30
2022-10-07T00:21:28.591Z,72.30
2022-10-07T00:23:55.930Z,72.30
2022-10-07T00:26:27.017Z,72.30
2022-10-07T00:28:54.921Z,72.40
2022-10-07T00:31:25.878Z,72.30
2022-10-07T00:33:54.455Z,72.40
2022-10-07T00:36:28.946Z,72.40
2022-10-07T00:39:00.221Z,72.60
2022-10-07T00:41:35.554Z,72.50
2022-10-07T00:44:36.316Z,72.80
2022-10-07T00:47:10.555Z,73.20
2022-10-07T00:50:03.440Z,72.90
2022-10-07T00:52:34.971Z,73.20
2022-10-07T00:55:07.159Z,73.20
2022-10-07T00:57:34.751Z,73.30
2022-10-07T01:00:04.495Z,73.30
2022-10-07T01:02:31.889Z,73.40
2022-10-07T01:05:00.297Z,73.50
2022-10-07T01:07:28.718Z,73.60
2022-10-07T01:09:59.664Z,73.70
2022-10-07T01:12:57.592Z,73.70
2022-10-07T01:15:38.385Z,74.20
2022-10-07T01:18:36.799Z,73.80
2022-10-07T01:21:20.161Z,73.90
2022-10-07T01:24:25.532Z,73.90
2022-10-07T01:27:16.083Z,74.00
2022-10-07T01:29:56.765Z,73.80
2022-10-07T01:32:38.928Z,74.10
2022-10-07T01:35:12.775Z,74.10
2022-10-07T01:37:46.143Z,74.00
2022-10-07T01:40:21.771Z,74.10
2022-10-07T01:42:51.858Z,74.20
2022-10-07T01:45:23.253Z,74.20
2022-10-07T01:47:51.113Z,74.20
2022-10-07T01:50:24.452Z,74.20
2022-10-07T01:52:51.565Z,74.30
2022-10-07T01:55:23.891Z,74.30
2022-10-07T01:58:01.877Z,74.30
2022-10-07T02:00:31.362Z,74.40
2022-10-07T02:03:33.810Z,74.30
2022-10-07T02:06:37.517Z,74.90
2022-10-07T02:09:15.634Z,74.70
2022-10-07T02:11:45.060Z,74.50
2022-10-07T02:14:18.931Z,75.40
2022-10-07T02:17:14.252Z,74.80
2022-10-07T02:19:55.452Z,75.20
2022-10-07T02:22:28.612Z,75.00
2022-10-07T02:24:59.215Z,75.00
2022-10-07T02:27:34.797Z,75.00
2022-10-07T02:30:10.031Z,75.90
2022-10-07T02:32:41.653Z,75.20
2022-10-07T02:35:35.084Z,75.20
2022-10-07T02:38:10.111Z,75.60
2022-10-07T02:40:51.688Z,75.30
2022-10-07T02:43:44.562Z,75.40
2022-10-07T02:46:20.288Z,75.50
2022-10-07T02:48:58.952Z,75.40
2022-10-07T02:51:46.888Z,75.40
2022-10-07T02:54:18.136Z,75.30
2022-10-07T02:56:47.516Z,75.30
2022-10-07T02:59:15.725Z,75.20
2022-10-07T03:01:47.989Z,75.30
2022-10-07T03:04:15.815Z,75.20
2022-10-07T03:06:42.923Z,75.20
2022-10-07T03:09:11.149Z,75.20
2022-10-07T03:11:39.376Z,75.30
2022-10-07T03:14:06.598Z,75.30
2022-10-07T03:16:35.226Z,75.10
2022-10-07T03:19:02.527Z,75.20
2022-10-07T03:21:40.521Z,75.30
2022-10-07T03:24:08.002Z,75.60
2022-10-07T03:26:41.289Z,75.00
2022-10-07T03:29:10.140Z,75.10
2022-10-07T03:31:37.727Z,75.00
2022-10-07T03:34:04.772Z,75.10
2022-10-07T03:36:32.052Z,75.30
2022-10-07T03:38:59.878Z,75.30
2022-10-07T03:41:27.535Z,75.40
2022-10-07T03:43:59.084Z,75.50
2022-10-07T03:46:27.304Z,75.60
2022-10-07T03:48:54.981Z,75.60
2022-10-07T03:51:25.684Z,75.50
2022-10-07T03:53:57.265Z,75.60
2022-10-07T03:56:26.802Z,75.60
2022-10-07T03:58:53.640Z,75.70
2022-10-07T04:01:20.986Z,75.70
2022-10-07T04:03:55.737Z,75.80
2022-10-07T04:06:24.424Z,75.80
2022-10-07T04:08:55.406Z,75.90
2022-10-07T04:11:24.924Z,75.90
2022-10-07T04:13:55.547Z,76.00
2022-10-07T04:16:25.340Z,76.10
2022-10-07T04:18:55.847Z,76.10
2022-10-07T04:21:24.110Z,76.20
2022-10-07T04:23:51.139Z,76.20
2022-10-07T04:26:18.266Z,76.30
2022-10-07T04:28:52.359Z,76.40
2022-10-07T04:31:21.973Z,76.40
2022-10-07T04:33:55.141Z,76.30
2022-10-07T04:36:27.307Z,76.40
2022-10-07T04:39:03.913Z,76.50
2022-10-07T04:41:35.345Z,76.50
2022-10-07T04:44:04.062Z,76.50
2022-10-07T04:46:36.456Z,76.60
2022-10-07T04:49:10.525Z,76.70
2022-10-07T04:51:37.875Z,76.80
2022-10-07T04:54:05.226Z,76.80
2022-10-07T04:56:38.733Z,76.90
2022-10-07T04:59:08.062Z,77.00
2022-10-07T05:01:36.653Z,77.10
2022-10-07T05:04:03.765Z,77.20
2022-10-07T05:06:32.738Z,77.30
2022-10-07T05:09:00.083Z,77.40
2022-10-07T05:14:21.698Z,77.80
2022-10-07T05:16:51.622Z,77.80
2022-10-07T05:19:21.444Z,77.80
2022-10-07T05:21:48.884Z,77.70
2022-10-07T05:24:15.787Z,77.80
2022-10-07T05:26:43.311Z,77.70
2022-10-07T05:29:10.674Z,77.70
2022-10-07T05:31:43.265Z,78.30
2022-10-07T05:34:11.028Z,77.60
2022-10-07T05:36:38.892Z,77.70
2022-10-07T05:39:07.214Z,77.70
2022-10-07T05:41:49.029Z,77.70
2022-10-07T05:44:19.370Z,77.60
2022-10-07T05:46:48.506Z,77.80
2022-10-07T05:49:16.821Z,77.90
2022-10-07T05:51:44.160Z,78.00
2022-10-07T05:54:11.499Z,78.10
2022-10-07T05:56:42.158Z,78.30
2022-10-07T05:59:10.347Z,78.30
2022-10-07T06:01:39.000Z,78.40
2022-10-07T06:04:12.304Z,78.50
2022-10-07T06:06:41.868Z,78.70
2022-10-07T06:09:30.369Z,78.80
2022-10-07T06:12:18.347Z,79.00
2022-10-07T06:14:46.817Z,79.40
2022-10-07T06:17:13.839Z,79.90
2022-10-07T06:19:42.213Z,80.50
2022-10-07T06:22:09.768Z,81.10
2022-10-07T06:24:38.278Z,81.50
2022-10-07T06:27:05.526Z,81.70
2022-10-07T06:29:32.576Z,81.90
2022-10-07T06:32:00.174Z,81.90
2022-10-07T06:34:27.311Z,82.00
2022-10-07T06:36:55.536Z,82.00
2022-10-07T06:39:22.734Z,81.70
2022-10-07T06:41:54.499Z,81.60
2022-10-07T06:44:43.439Z,81.30
2022-10-07T06:47:14.867Z,81.00
2022-10-07T06:49:44.085Z,80.60
2022-10-07T06:52:12.192Z,80.30
2022-10-07T06:54:39.378Z,80.10
2022-10-07T06:57:20.706Z,79.80
2022-10-07T06:59:55.125Z,79.60
2022-10-07T07:02:22.332Z,79.10
2022-10-07T07:04:51.136Z,78.50
2022-10-07T07:07:24.082Z,77.60
2022-10-07T07:09:51.886Z,76.70
2022-10-07T07:12:20.282Z,75.70
2022-10-07T07:14:47.609Z,75.00
2022-10-07T07:17:19.153Z,73.40
2022-10-07T07:19:46.070Z,71.80
2022-10-07T07:22:13.054Z,70.90
2022-10-07T07:24:41.941Z,69.40
2022-10-07T07:27:09.210Z,68.30
2022-10-07T07:29:37.138Z,67.70
2022-10-07T07:32:04.718Z,66.50
2022-10-07T07:34:38.236Z,64.90
2022-10-07T07:37:07.172Z,63.30
2022-10-07T07:39:39.295Z,62.50
2022-10-07T07:42:12.566Z,60.60
2022-10-07T07:44:40.321Z,59.90
2022-10-07T07:47:13.673Z,59.70
2022-10-07T07:49:40.616Z,58.80
2022-10-07T07:52:11.029Z,57.80
2022-10-07T07:54:43.603Z,57.50
2022-10-07T07:57:11.739Z,56.70
2022-10-07T07:59:38.851Z,56.20
2022-10-07T08:02:07.952Z,55.70
2022-10-07T08:04:37.237Z,53.80
2022-10-07T08:07:04.830Z,53.50
2022-10-07T08:09:31.992Z,52.00
2022-10-07T08:11:58.980Z,51.70
2022-10-07T08:14:26.518Z,50.90
2022-10-07T08:16:58.085Z,50.00
2022-10-07T08:19:27.184Z,49.10
2022-10-07T08:21:54.408Z,47.20
2022-10-07T08:24:26.073Z,47.40
2022-10-07T08:27:19.610Z,46.60
2022-10-07T08:29:46.657Z,45.90
2022-10-07T08:32:13.565Z,44.10
2022-10-07T08:34:40.390Z,44.00
2022-10-07T08:37:07.408Z,43.50
2022-10-07T08:39:34.295Z,42.60
2022-10-07T08:42:28.152Z,41.60
2022-10-07T08:44:55.809Z,40.30
2022-10-07T08:47:44.120Z,39.80
2022-10-07T08:50:23.871Z,38.20
2022-10-07T08:53:01.767Z,38.30
2022-10-07T08:55:50.189Z,38.00
2022-10-07T08:59:10.985Z,36.70
2022-10-07T09:02:15.767Z,35.90
2022-10-07T09:05:01.534Z,35.60
2022-10-07T09:07:39.398Z,35.50
2022-10-07T09:10:09.153Z,35.00
2022-10-07T09:12:52.492Z,33.80
2022-10-07T09:16:10.366Z,33.50
2022-10-07T09:18:41.996Z,32.30
2022-10-07T09:21:17.364Z,32.40
2022-10-07T09:23:46.496Z,31.20
2022-10-07T09:26:17.396Z,31.00
2022-10-07T09:28:44.304Z,30.80
2022-10-07T09:31:15.126Z,30.50
2022-10-07T09:33:49.267Z,30.00
2022-10-07T09:36:18.455Z,30.20
2022-10-07T09:38:49.093Z,30.20
2022-10-07T09:41:30.376Z,29.90
2022-10-07T09:44:15.211Z,29.60
2022-10-07T09:46:52.289Z,29.10
2022-10-07T09:49:28.307Z,28.80
2022-10-07T09:52:14.376Z,28.50
2022-10-07T09:54:43.986Z,28.70
2022-10-07T09:57:29.680Z,28.50
2022-10-07T10:00:17.682Z,28.10
2022-10-07T10:03:04.951Z,27.60
2022-10-07T10:05:35.745Z,27.60
2022-10-07T10:08:25.962Z,27.80
2022-10-07T10:11:03.076Z,27.80
2022-10-07T10:13:43.266Z,27.50
2022-10-07T10:16:25.948Z,27.10
2022-10-07T10:19:05.659Z,26.10
2022-10-07T10:21:37.417Z,25.80
2022-10-07T10:24:43.248Z,26.10
2022-10-07T10:27:29.102Z,25.70
2022-10-07T10:30:22.052Z,25.40
2022-10-07T10:33:12.131Z,26.10
2022-10-07T10:35:56.680Z,25.20
2022-10-07T10:39:20.694Z,25.20
2022-10-07T10:42:21.448Z,25.00
2022-10-07T10:45:12.239Z,25.00
2022-10-07T10:48:14.996Z,24.90
2022-10-07T10:51:04.149Z,25.00
2022-10-07T10:54:05.493Z,24.30
2022-10-07T10:57:01.668Z,23.80
2022-10-07T10:59:40.909Z,24.20
2022-10-07T11:02:43.665Z,24.30
2022-10-07T11:05:37.731Z,24.40
2022-10-07T11:08:19.995Z,24.70
2022-10-07T11:10:58.061Z,24.20
2022-10-07T11:13:36.675Z,24.20
2022-10-07T11:17:05.198Z,24.40
2022-10-07T11:19:43.193Z,24.20
2022-10-07T11:22:46.317Z,23.90
2022-10-07T11:25:25.544Z,23.30
2022-10-07T11:28:25.569Z,22.80
2022-10-07T11:31:11.625Z,22.80
2022-10-07T11:34:00.844Z,22.60
2022-10-07T11:37:03.113Z,22.00
2022-10-07T11:39:30.558Z,22.10
2022-10-07T11:42:08.019Z,22.00
2022-10-07T11:45:18.721Z,21.90
2022-10-07T11:48:02.457Z,21.80
2022-10-07T11:50:36.819Z,21.90
2022-10-07T11:53:13.703Z,21.90
2022-10-07T11:55:54.365Z,22.00
2022-10-07T11:58:27.936Z,21.60
2022-10-07T12:01:26.330Z,21.70
2022-10-07T12:04:36.711Z,21.90
2022-10-07T12:07:57.163Z,21.80
2022-10-07T12:10:29.192Z,21.50
2022-10-07T12:13:02.151Z,21.50
2022-10-07T12:15:44.530Z,21.80
2022-10-07T12:18:17.400Z,21.60
2022-10-07T12:20:50.897Z,21.40
2022-10-07T12:23:20.529Z,20.90
2022-10-07T12:26:05.594Z,21.10
2022-10-07T12:28:34.401Z,21.10
2022-10-07T12:31:15.175Z,21.10
2022-10-07T12:33:47.638Z,21.10
2022-10-07T12:36:26.275Z,21.00
2022-10-07T12:38:59.380Z,21.30
2022-10-07T12:41:30.990Z,22.00
2022-10-07T12:44:20.784Z,21.80
2022-10-07T12:47:00.994Z,21.10
2022-10-07T12:49:48.826Z,21.00
2022-10-07T12:52:48.462Z,20.80
2022-10-07T12:55:32.477Z,20.80
2022-10-07T12:58:20.123Z,20.60
2022-10-07T13:01:04.120Z,21.00
2022-10-07T13:04:05.430Z,21.30
2022-10-07T13:06:57.944Z,21.40
2022-10-07T13:09:43.937Z,21.10
2022-10-07T13:12:36.060Z,21.20
2022-10-07T13:15:29.846Z,21.10
2022-10-07T13:18:45.099Z,21.30
2022-10-07T13:21:45.810Z,21.30
2022-10-07T13:24:22.253Z,21.50
2022-10-07T13:26:49.272Z,21.50
2022-10-07T13:29:29.950Z,21.60
2022-10-07T13:32:16.349Z,21.40
2022-10-07T13:34:46.239Z,21.10
2022-10-07T13:37:33.418Z,21.10
2022-10-07T13:40:28.239Z,21.00
2022-10-07T13:42:59.110Z,21.00
2022-10-07T13:45:27.056Z,20.80
2022-10-07T13:47:55.552Z,20.90
2022-10-07T13:50:32.476Z,21.00
2022-10-07T13:52:59.706Z,21.20
2022-10-07T13:55:30.824Z,21.40
2022-10-07T13:58:01.809Z,21.60
2022-10-07T14:00:30.075Z,21.60
2022-10-07T14:02:57.188Z,21.60
2022-10-07T14:05:28.450Z,21.40
2022-10-07T14:08:16.759Z,21.20
2022-10-07T14:11:03.557Z,21.20
2022-10-07T14:13:31.940Z,21.50
2022-10-07T14:16:00.108Z,21.60
2022-10-07T14:18:31.918Z,21.60
2022-10-07T14:21:13.006Z,22.00
2022-10-07T14:23:39.936Z,22.50
2022-10-07T14:26:11.439Z,22.80
2022-10-07T14:28:40.037Z,23.30
2022-10-07T14:31:25.390Z,23.70
2022-10-07T14:34:35.847Z,23.90
2022-10-07T14:37:10.704Z,24.30
2022-10-07T14:39:42.787Z,24.90
2022-10-07T14:42:30.358Z,25.30
2022-10-07T14:44:57.915Z,25.90
2022-10-07T14:47:30.897Z,26.10
2022-10-07T14:50:01.096Z,26.40
2022-10-07T14:52:43.593Z,26.90
2022-10-07T14:55:27.871Z,27.10
2022-10-07T14:57:55.453Z,27.40
2022-10-07T15:00:25.404Z,27.70
2022-10-07T15:02:54.487Z,28.10
2022-10-07T15:05:22.924Z,28.50
2022-10-07T15:07:50.295Z,28.60
2022-10-07T15:10:21.599Z,28.80
2022-10-07T15:12:49.315Z,28.90
2022-10-07T15:15:16.696Z,29.00
2022-10-07T15:17:44.409Z,29.10
2022-10-07T15:20:16.272Z,29.20
2022-10-07T15:22:44.554Z,29.20
2022-10-07T15:25:15.541Z,29.50
2022-10-07T15:27:42.974Z,29.60
2022-10-07T15:30:11.099Z,29.90
2022-10-07T15:32:38.114Z,30.00
2022-10-07T15:35:05.722Z,30.10
2022-10-07T15:37:33.478Z,30.30
2022-10-07T15:40:00.491Z,30.20
2022-10-07T15:42:27.591Z,30.10
2022-10-07T15:44:54.550Z,30.20
2022-10-07T15:47:21.566Z,30.20
2022-10-07T15:49:49.708Z,30.20
2022-10-07T15:52:16.881Z,30.30
2022-10-07T15:54:46.363Z,30.00
2022-10-07T15:57:14.528Z,30.00
2022-10-07T15:59:42.138Z,30.00
2022-10-07T16:02:16.395Z,30.00
2022-10-07T16:04:47.120Z,30.10
2022-10-07T16:07:15.593Z,30.30
2022-10-07T16:09:42.657Z,30.60
2022-10-07T16:12:09.674Z,30.80
2022-10-07T16:14:36.744Z,31.00
2022-10-07T16:17:04.414Z,31.40
2022-10-07T16:19:31.233Z,31.60
2022-10-07T16:22:24.174Z,32.00
2022-10-07T16:24:52.107Z,32.40
2022-10-07T16:27:18.928Z,32.70
2022-10-07T16:30:04.879Z,33.10
2022-10-07T16:32:33.583Z,33.40
2022-10-07T16:35:00.603Z,33.90
2022-10-07T16:37:29.260Z,34.00
2022-10-07T16:39:56.300Z,34.50
2022-10-07T16:42:23.158Z,35.00
2022-10-07T16:44:51.019Z,35.30
2022-10-07T16:47:18.141Z,35.60
2022-10-07T16:49:45.665Z,35.90
2022-10-07T16:52:13.929Z,36.20
2022-10-07T16:54:41.432Z,36.70
2022-10-07T16:57:08.241Z,37.10
2022-10-07T16:59:35.360Z,37.40
2022-10-07T17:02:05.113Z,37.70
2022-10-07T17:04:32.111Z,38.10
2022-10-07T17:06:59.121Z,38.40
2022-10-07T17:09:25.962Z,38.90
2022-10-07T17:11:53.104Z,39.30
2022-10-07T17:14:21.661Z,39.70
2022-10-07T17:16:56.102Z,40.20
2022-10-07T17:19:27.537Z,41.00
2022-10-07T17:21:55.951Z,41.40
2022-10-07T17:24:24.162Z,41.80
2022-10-07T17:26:52.545Z,42.30
2022-10-07T17:29:21.591Z,42.70
2022-10-07T17:31:51.050Z,43.20
2022-10-07T17:34:20.527Z,43.50
2022-10-07T17:36:48.728Z,43.90
2022-10-07T17:39:17.012Z,44.40
2022-10-07T17:41:44.260Z,44.70
2022-10-07T17:44:12.572Z,45.20
2022-10-07T17:46:40.700Z,45.50
2022-10-07T17:49:13.553Z,45.80
2022-10-07T17:51:42.913Z,46.20
2022-10-07T17:54:12.118Z,46.40
2022-10-07T17:56:39.697Z,46.90
2022-10-07T17:59:06.585Z,47.20
2022-10-07T18:01:35.291Z,47.60
2022-10-07T18:04:06.145Z,48.00
2022-10-07T18:06:39.459Z,48.40
2022-10-07T18:09:09.470Z,48.60
2022-10-07T18:11:55.404Z,49.10
2022-10-07T18:14:41.158Z,49.40
2022-10-07T18:17:09.919Z,49.60
2022-10-07T18:19:37.793Z,50.00
2022-10-07T18:22:05.152Z,50.40
2022-10-07T18:24:32.065Z,50.80
2022-10-07T18:27:01.207Z,51.20
2022-10-07T18:29:31.273Z,51.80
2022-10-07T18:31:58.648Z,52.10
2022-10-07T18:34:25.664Z,52.40
2022-10-07T18:36:56.313Z,52.90
2022-10-07T18:39:24.436Z,53.30
2022-10-07T18:41:51.698Z,53.70
2022-10-07T18:44:19.094Z,54.10
2022-10-07T18:46:46.137Z,54.50
2022-10-07T18:49:13.770Z,54.90
2022-10-07T18:51:41.309Z,55.20
2022-10-07T18:54:08.408Z,55.60
2022-10-07T18:56:39.930Z,56.00
2022-10-07T18:59:09.913Z,56.30
2022-10-07T19:01:37.729Z,56.80
2022-10-07T19:04:06.972Z,57.10
2022-10-07T19:06:43.905Z,57.50
2022-10-07T19:09:18.290Z,57.80
2022-10-07T19:11:45.713Z,58.10
2022-10-07T19:14:13.797Z,58.30
2022-10-07T19:16:51.523Z,58.50
2022-10-07T19:19:22.032Z,59.10
2022-10-07T19:21:52.837Z,59.10
2022-10-07T19:24:20.998Z,59.30
2022-10-07T19:26:50.056Z,59.50
2022-10-07T19:29:18.379Z,59.70
2022-10-07T19:31:50.032Z,60.00
2022-10-07T19:34:22.055Z,60.60
2022-10-07T19:36:50.421Z,60.80
2022-10-07T19:39:22.075Z,61.00
2022-10-07T19:41:51.108Z,61.60
2022-10-07T19:44:18.580Z,61.60
2022-10-07T19:46:46.369Z,61.90
2022-10-07T19:49:13.423Z,62.20
2022-10-07T19:51:42.067Z,62.40
2022-10-07T19:54:11.868Z,62.70
2022-10-07T19:56:40.871Z,62.90
2022-10-07T19:59:11.506Z,63.90
2022-10-07T20:01:43.603Z,63.50
2022-10-07T20:04:18.508Z,63.60
2022-10-07T20:06:45.517Z,63.80
2022-10-07T20:09:16.625Z,63.90
2022-10-07T20:11:43.642Z,64.20
2022-10-07T20:14:11.694Z,64.20
2022-10-07T20:16:39.428Z,64.40
2022-10-07T20:19:32.080Z,64.60
2022-10-07T20:22:01.093Z,64.70
2022-10-07T20:24:28.120Z,65.00
2022-10-07T20:26:55.038Z,65.10
2022-10-07T20:29:25.131Z,65.40
2022-10-07T20:31:53.127Z,65.60
2022-10-07T20:34:20.150Z,65.80
2022-10-07T20:36:50.799Z,66.00
2022-10-07T20:39:39.370Z,66.20
2022-10-07T20:42:21.591Z,66.40
2022-10-07T20:44:50.236Z,66.50
2022-10-07T20:47:18.709Z,66.70
2022-10-07T20:49:48.006Z,66.90
2022-10-07T20:52:23.796Z,67.10
2022-10-07T20:54:52.001Z,67.30
2022-10-07T20:57:22.877Z,67.40
2022-10-07T20:59:50.420Z,67.60
2022-10-07T21:02:21.091Z,67.50
2022-10-07T21:04:48.330Z,67.50
2022-10-07T21:07:17.632Z,67.60
2022-10-07T21:09:45.073Z,67.60
2022-10-07T21:12:15.338Z,68.40
2022-10-07T21:14:44.088Z,67.80
2022-10-07T21:17:12.193Z,67.80
2022-10-07T21:22:31.059Z,67.90
2022-10-07T21:24:58.580Z,67.90
2022-10-07T21:27:25.406Z,68.00
2022-10-07T21:29:52.387Z,68.10
2022-10-07T21:32:19.209Z,68.20
2022-10-07T21:34:45.998Z,68.20
2022-10-07T21:37:13.041Z,68.40
2022-10-07T21:39:40.041Z,68.50
2022-10-07T21:42:06.909Z,68.60
2022-10-07T21:44:35.710Z,68.70
2022-10-07T21:47:04.722Z,68.70
2022-10-07T21:49:31.745Z,68.90
2022-10-07T21:51:58.592Z,69.00
2022-10-07T21:54:26.105Z,69.30
2022-10-07T21:56:53.203Z,69.20
2022-10-07T21:59:20.812Z,69.30
2022-10-07T22:01:47.774Z,69.40
2022-10-07T22:04:18.980Z,69.40
2022-10-07T22:07:32.602Z,69.50
2022-10-07T22:09:59.640Z,69.60
2022-10-07T22:12:27.121Z,69.40
2022-10-07T22:15:20.319Z,69.40
2022-10-07T22:17:47.489Z,69.30
2022-10-07T22:20:14.618Z,69.40
2022-10-07T22:22:42.174Z,69.40
2022-10-07T22:25:09.325Z,69.50
2022-10-07T22:27:36.283Z,69.60
2022-10-07T22:30:04.034Z,69.70
2022-10-07T22:32:30.970Z,69.70
2022-10-07T22:35:27.384Z,69.70
2022-10-07T22:37:55.508Z,69.90
2022-10-07T22:43:13.524Z,69.90
2022-10-07T22:45:45.019Z,70.00
2022-10-07T22:48:11.908Z,70.10
2022-10-07T22:50:38.747Z,70.20
2022-10-07T22:53:05.620Z,70.20
2022-10-07T22:55:34.342Z,70.40
2022-10-07T22:58:02.024Z,70.50
2022-10-07T23:00:29.181Z,70.50
2022-10-07T23:02:56.096Z,70.50
2022-10-07T23:05:23.030Z,70.60
2022-10-07T23:07:50.419Z,70.60
2022-10-07T23:10:17.294Z,70.80
2022-10-07T23:13:09.265Z,71.60
2022-10-07T23:15:36.356Z,70.90
2022-10-07T23:18:03.221Z,70.90
2022-10-07T23:20:30.037Z,71.00
2022-10-07T23:22:57.873Z,71.10
2022-10-07T23:25:26.867Z,71.20
2022-10-07T23:27:54.080Z,71.30
2022-10-07T23:30:20.889Z,71.30
2022-10-07T23:32:48.199Z,71.50
2022-10-07T23:35:15.557Z,71.50
2022-10-07T23:37:43.641Z,71.70
2022-10-07T23:40:10.892Z,71.70
2022-10-07T23:42:37.743Z,71.80
2022-10-07T23:45:05.272Z,72.00
2022-10-07T23:47:32.405Z,72.10
2022-10-07T23:49:59.455Z,72.20
2022-10-07T23:52:26.276Z,72.20
2022-10-07T23:54:53.133Z,72.30
2022-10-07T23:57:19.986Z,72.40
2022-10-07T23:59:47.009Z,72.60
